createdAt,value
2023-01-01T00:01:30.980Z,101967.75
2023-01-01T00:04:02.688Z,101953.09
2023-01-01T00:06:34.039Z,101960.75
2023-01-01T00:09:24.439Z,101951.97
2023-01-01T00:11:55.449Z,101950.72
2023-01-01T00:14:26.839Z,101960.00
2023-01-01T00:16:58.802Z,101956.75
2023-01-01T00:19:30.422Z,101942.19
2023-01-01T00:22:05.626Z,101945.38
2023-01-01T00:24:51.912Z,101945.13
2023-01-01T00:27:23.020Z,101950.09
2023-01-01T00:29:54.143Z,101941.91
2023-01-01T00:32:25.699Z,101934.00
2023-01-01T00:34:56.751Z,101936.81
2023-01-01T00:37:29.372Z,101927.09
2023-01-01T00:40:00.615Z,101930.91
2023-01-01T00:42:33.265Z,101925.78
2023-01-01T00:45:04.319Z,101930.41
2023-01-01T00:47:35.751Z,101919.19
2023-01-01T00:50:07.356Z,101922.94
2023-01-01T00:52:38.586Z,101929.50
2023-01-01T00:55:09.571Z,101928.34
2023-01-01T00:57:40.622Z,101922.66
2023-01-01T01:00:12.463Z,101927.66
2023-01-01T01:02:43.750Z,101913.31
2023-01-01T01:05:14.480Z,101921.09
2023-01-01T01:07:45.687Z,101906.28
2023-01-01T01:10:16.500Z,101915.75
2023-01-01T01:12:47.636Z,101894.59
2023-01-01T01:15:18.611Z,101893.72
2023-01-01T01:17:49.791Z,101904.81
2023-01-01T01:20:21.027Z,101898.47
2023-01-01T01:22:51.812Z,101905.22
2023-01-01T01:25:22.954Z,101906.72
2023-01-01T01:27:54.283Z,101893.91
2023-01-01T01:30:25.829Z,101908.03
2023-01-01T01:32:57.008Z,101898.00
2023-01-01T01:35:28.235Z,101890.09
2023-01-01T01:37:59.647Z,101906.16
2023-01-01T01:40:30.778Z,101907.94
2023-01-01T01:43:01.743Z,101907.56
2023-01-01T01:45:33.571Z,101894.28
2023-01-01T01:48:05.128Z,101906.28
2023-01-01T01:50:36.590Z,101898.53
2023-01-01T01:53:10.781Z,101896.75
2023-01-01T01:55:53.605Z,101887.34
2023-01-01T01:58:25.091Z,101904.44
2023-01-01T02:00:55.758Z,101897.56
2023-01-01T02:03:41.184Z,101892.84
2023-01-01T02:06:13.167Z,101895.34
2023-01-01T02:08:44.306Z,101885.19
2023-01-01T02:11:21.646Z,101881.97
2023-01-01T02:13:53.765Z,101884.59
2023-01-01T02:16:46.106Z,101886.50
2023-01-01T02:19:39.681Z,101879.31
2023-01-01T02:22:52.695Z,101872.81
2023-01-01T02:25:49.480Z,101879.75
2023-01-01T02:28:40.191Z,101879.19
2023-01-01T02:31:16.991Z,101875.13
2023-01-01T02:33:53.755Z,101873.44
2023-01-01T02:36:27.881Z,101866.69
2023-01-01T02:39:00.799Z,101851.00
2023-01-01T02:41:42.216Z,101858.34
2023-01-01T02:44:14.597Z,101864.13
2023-01-01T02:46:45.780Z,101871.84
2023-01-01T02:49:16.684Z,101871.69
2023-01-01T02:51:59.766Z,101877.28
2023-01-01T02:54:40.526Z,101869.03
2023-01-01T02:57:37.107Z,101862.00
2023-01-01T03:00:21.127Z,101866.75
2023-01-01T03:03:22.743Z,101867.91
2023-01-01T03:06:24.375Z,101865.13
2023-01-01T03:09:18.358Z,101858.16
2023-01-01T03:12:21.012Z,101870.06
2023-01-01T03:15:00.315Z,101855.75
2023-01-01T03:17:37.759Z,101861.91
2023-01-01T03:20:12.930Z,101869.28
2023-01-01T03:25:31.781Z,101857.47
2023-01-01T03:28:07.488Z,101862.22
2023-01-01T03:30:40.608Z,101854.94
2023-01-01T03:33:40.579Z,101848.78
2023-01-01T03:36:26.329Z,101847.69
2023-01-01T03:39:10.731Z,101854.00
2023-01-01T03:41:49.147Z,101847.88
2023-01-01T03:44:25.657Z,101849.94
2023-01-01T03:46:56.922Z,101854.13
2023-01-01T03:49:28.356Z,101844.47
2023-01-01T03:52:25.245Z,101853.81
2023-01-01T03:54:59.587Z,101853.00
2023-01-01T03:57:52.017Z,101840.13
2023-01-01T04:00:29.492Z,101839.22
2023-01-01T04:03:17.330Z,101848.19
2023-01-01T04:05:48.586Z,101850.53
2023-01-01T04:08:20.106Z,101842.59
2023-01-01T04:10:51.779Z,101847.56
2023-01-01T04:13:22.331Z,101840.59
2023-01-01T04:15:54.088Z,101842.16
2023-01-01T04:18:25.016Z,101842.75
2023-01-01T04:20:55.971Z,101840.59
2023-01-01T04:23:27.026Z,101837.91
2023-01-01T04:25:58.353Z,101840.38
2023-01-01T04:28:29.085Z,101848.09
2023-01-01T04:31:04.483Z,101838.66
2023-01-01T04:33:35.975Z,101844.44
2023-01-01T04:36:12.366Z,101838.56
2023-01-01T04:38:43.282Z,101846.09
2023-01-01T04:41:14.107Z,101854.56
2023-01-01T04:43:52.492Z,101842.38
2023-01-01T04:46:24.790Z,101846.78
2023-01-01T04:48:56.378Z,101846.91
2023-01-01T04:51:27.514Z,101831.91
2023-01-01T04:53:58.767Z,101836.97
2023-01-01T04:56:30.021Z,101840.00
2023-01-01T04:59:00.825Z,101845.88
2023-01-01T05:01:32.535Z,101841.66
2023-01-01T05:04:04.026Z,101841.88
2023-01-01T05:06:35.228Z,101829.91
2023-01-01T05:09:06.969Z,101829.63
2023-01-01T05:11:37.455Z,101834.69
2023-01-01T05:14:08.773Z,101832.81
2023-01-01T05:16:41.989Z,101831.56
2023-01-01T05:19:13.157Z,101833.31
2023-01-01T05:21:47.196Z,101835.69
2023-01-01T05:24:18.295Z,101829.22
2023-01-01T05:26:49.467Z,101833.34
2023-01-01T05:29:21.242Z,101830.72
2023-01-01T05:31:52.592Z,101830.50
2023-01-01T05:34:24.020Z,101826.41
2023-01-01T05:36:55.182Z,101842.41
2023-01-01T05:39:26.631Z,101842.88
2023-01-01T05:41:57.863Z,101841.50
2023-01-01T05:44:28.948Z,101847.34
2023-01-01T05:47:00.085Z,101858.50
2023-01-01T05:49:31.486Z,101854.41
2023-01-01T05:52:02.398Z,101850.34
2023-01-01T05:54:33.302Z,101855.25
2023-01-01T05:57:04.206Z,101863.50
2023-01-01T05:59:35.379Z,101849.44
2023-01-01T06:02:06.468Z,101870.53
2023-01-01T06:04:37.770Z,101871.84
2023-01-01T06:07:08.915Z,101863.25
2023-01-01T06:09:39.983Z,101876.25
2023-01-01T06:12:11.318Z,101865.53
2023-01-01T06:14:42.640Z,101867.81
2023-01-01T06:17:14.548Z,101876.03
2023-01-01T06:19:45.912Z,101867.09
2023-01-01T06:22:17.732Z,101889.56
2023-01-01T06:24:48.868Z,101890.19
2023-01-01T06:27:20.095Z,101895.59
2023-01-01T06:29:51.183Z,101893.97
2023-01-01T06:32:22.312Z,101888.38
2023-01-01T06:34:53.251Z,101895.59
2023-01-01T06:37:24.682Z,101903.88
2023-01-01T06:39:55.947Z,101898.13
2023-01-01T06:42:31.994Z,101904.72
2023-01-01T06:45:05.182Z,101906.06
2023-01-01T06:47:37.205Z,101911.81
2023-01-01T06:50:10.389Z,101918.41
2023-01-01T06:52:41.380Z,101907.19
2023-01-01T06:55:12.796Z,101923.63
2023-01-01T06:57:43.689Z,101924.19
2023-01-01T07:00:15.815Z,101916.25
2023-01-01T07:02:49.896Z,101919.50
2023-01-01T07:05:21.139Z,101928.00
2023-01-01T07:07:52.237Z,101937.56
2023-01-01T07:10:23.589Z,101928.84
2023-01-01T07:12:55.076Z,101948.53
2023-01-01T07:15:26.163Z,101949.34
2023-01-01T07:17:57.154Z,101955.38
2023-01-01T07:20:28.129Z,101955.38
2023-01-01T07:23:00.139Z,101949.31
2023-01-01T07:25:31.537Z,101969.06
2023-01-01T07:28:02.555Z,101959.22
2023-01-01T07:30:33.537Z,101955.03
2023-01-01T07:33:04.604Z,101969.53
2023-01-01T07:35:39.380Z,101973.91
2023-01-01T07:38:10.309Z,101973.63
2023-01-01T07:40:41.924Z,101978.56
2023-01-01T07:43:14.091Z,101973.31
2023-01-01T07:45:45.390Z,101972.78
2023-01-01T07:48:17.917Z,101984.22
2023-01-01T07:50:49.179Z,101982.03
2023-01-01T07:53:20.429Z,101989.69
2023-01-01T07:55:51.596Z,101990.78
2023-01-01T07:58:24.449Z,101992.41
2023-01-01T08:00:55.783Z,101996.22
2023-01-01T08:03:26.792Z,102002.81
2023-01-01T08:05:57.852Z,102003.34
2023-01-01T08:08:29.035Z,102006.88
2023-01-01T08:11:04.488Z,102006.31
2023-01-01T08:13:35.645Z,102005.25
2023-01-01T08:16:09.247Z,102011.53
2023-01-01T08:18:40.412Z,102012.31
2023-01-01T08:21:11.555Z,102022.69
2023-01-01T08:23:43.247Z,102028.41
2023-01-01T08:26:18.879Z,102026.75
2023-01-01T08:28:53.584Z,102025.69
2023-01-01T08:31:28.709Z,102035.47
2023-01-01T08:33:59.849Z,102027.56
2023-01-01T08:36:31.393Z,102032.22
2023-01-01T08:39:02.607Z,102025.88
2023-01-01T08:41:34.048Z,102036.56
2023-01-01T08:44:05.173Z,102038.13
2023-01-01T08:46:36.637Z,102051.19
2023-01-01T08:49:08.128Z,102055.06
2023-01-01T08:51:39.275Z,102050.16
2023-01-01T08:54:10.546Z,102056.19
2023-01-01T08:56:41.583Z,102059.44
2023-01-01T08:59:12.660Z,102055.06
2023-01-01T09:01:44.013Z,102063.50
2023-01-01T09:04:15.898Z,102070.34
2023-01-01T09:06:47.041Z,102053.06
2023-01-01T09:09:19.650Z,102060.56
2023-01-01T09:11:55.410Z,102074.28
2023-01-01T09:14:27.363Z,102063.50
2023-01-01T09:16:58.470Z,102070.88
2023-01-01T09:19:30.777Z,102077.66
2023-01-01T09:22:02.161Z,102071.91
2023-01-01T09:24:33.038Z,102071.66
2023-01-01T09:27:04.011Z,102071.44
2023-01-01T09:29:35.334Z,102080.66
2023-01-01T09:32:06.529Z,102081.16
2023-01-01T09:34:37.672Z,102076.25
2023-01-01T09:37:09.030Z,102083.59
2023-01-01T09:39:40.076Z,102077.28
2023-01-01T09:42:32.251Z,102078.13
2023-01-01T09:45:30.953Z,102081.31
2023-01-01T09:48:08.240Z,102078.59
2023-01-01T09:50:42.880Z,102087.09
2023-01-01T09:53:25.953Z,102090.97
2023-01-01T09:56:05.053Z,102093.03
2023-01-01T09:58:40.318Z,102094.72
2023-01-01T10:01:33.029Z,102088.97
2023-01-01T10:04:22.363Z,102085.13
2023-01-01T10:07:05.806Z,102084.28
2023-01-01T10:09:45.655Z,102098.75
2023-01-01T10:12:22.828Z,102099.78
2023-01-01T10:15:04.497Z,102097.16
2023-01-01T10:17:51.076Z,102100.88
2023-01-01T10:20:43.540Z,102108.81
2023-01-01T10:23:19.527Z,102104.94
2023-01-01T10:25:51.046Z,102097.53
2023-01-01T10:28:30.612Z,102113.25
2023-01-01T10:31:20.941Z,102107.25
2023-01-01T10:33:51.952Z,102116.88
2023-01-01T10:36:23.100Z,102101.44
2023-01-01T10:38:54.241Z,102103.94
2023-01-01T10:41:25.117Z,102105.31
2023-01-01T10:43:56.311Z,102098.47
2023-01-01T10:46:31.817Z,102114.03
2023-01-01T10:49:21.001Z,102112.13
2023-01-01T10:51:54.421Z,102100.34
2023-01-01T10:54:31.689Z,102073.31
2023-01-01T10:57:24.287Z,102107.94
2023-01-01T10:59:55.854Z,102103.25
2023-01-01T11:02:27.376Z,102104.94
2023-01-01T11:05:22.796Z,102103.44
2023-01-01T11:07:54.111Z,102095.78
2023-01-01T11:10:32.654Z,102100.16
2023-01-01T11:13:05.584Z,102107.41
2023-01-01T11:15:44.395Z,102107.03
2023-01-01T11:18:17.648Z,102120.84
2023-01-01T11:21:00.182Z,102115.53
2023-01-01T11:23:35.953Z,102114.50
2023-01-01T11:26:21.383Z,102119.81
2023-01-01T11:29:26.870Z,102114.38
2023-01-01T11:31:58.893Z,102115.56
2023-01-01T11:34:34.643Z,102111.50
2023-01-01T11:37:12.153Z,102110.88
2023-01-01T11:39:51.881Z,102111.09
2023-01-01T11:42:28.346Z,102106.13
2023-01-01T11:45:20.881Z,102114.13
2023-01-01T11:48:00.538Z,102096.78
2023-01-01T11:50:33.321Z,102108.63
2023-01-01T11:53:22.575Z,102106.13
2023-01-01T11:56:05.865Z,102104.34
2023-01-01T11:58:59.015Z,102103.03
2023-01-01T12:01:39.152Z,102103.25
2023-01-01T12:04:32.153Z,102090.19
2023-01-01T12:07:14.304Z,102095.31
2023-01-01T12:09:49.136Z,102093.91
2023-01-01T12:13:01.257Z,102090.03
2023-01-01T12:15:45.981Z,102093.22
2023-01-01T12:18:59.514Z,102095.16
2023-01-01T12:21:32.588Z,102088.78
2023-01-01T12:24:05.801Z,102085.03
2023-01-01T12:26:55.905Z,102090.56
2023-01-01T12:29:43.341Z,102080.47
2023-01-01T12:32:35.501Z,102086.13
2023-01-01T12:35:19.444Z,102078.13
2023-01-01T12:38:24.141Z,102078.69
2023-01-01T12:40:55.135Z,102083.34
2023-01-01T12:43:37.392Z,102084.03
2023-01-01T12:46:36.094Z,102082.88
2023-01-01T12:49:36.199Z,102077.59
2023-01-01T12:52:07.166Z,102081.47
2023-01-01T12:55:02.298Z,102076.13
2023-01-01T12:57:50.940Z,102083.78
2023-01-01T13:00:22.943Z,102069.88
2023-01-01T13:03:32.806Z,102066.84
2023-01-01T13:06:04.622Z,102077.78
2023-01-01T13:08:36.081Z,102078.03
2023-01-01T13:11:08.734Z,102071.75
2023-01-01T13:13:39.787Z,102068.38
2023-01-01T13:16:15.219Z,102068.72
2023-01-01T13:18:52.746Z,102069.88
2023-01-01T13:21:27.363Z,102061.47
2023-01-01T13:24:05.504Z,102070.78
2023-01-01T13:26:37.338Z,102076.13
2023-01-01T13:29:27.359Z,102060.00
2023-01-01T13:32:03.447Z,102062.53
2023-01-01T13:34:44.363Z,102056.34
2023-01-01T13:37:15.725Z,102059.25
2023-01-01T13:40:15.313Z,102053.25
2023-01-01T13:43:04.526Z,102047.06
2023-01-01T13:46:11.434Z,102043.97
2023-01-01T13:48:41.266Z,102044.06
2023-01-01T13:52:04.048Z,102038.63
2023-01-01T13:54:33.598Z,102041.53
2023-01-01T13:57:13.996Z,102034.50
2023-01-01T14:00:06.372Z,102040.69
2023-01-01T14:03:10.773Z,102024.88
2023-01-01T14:06:12.565Z,102010.84
2023-01-01T14:08:43.737Z,102020.06
2023-01-01T14:11:23.454Z,102013.38
2023-01-01T14:13:54.453Z,102016.25
2023-01-01T14:16:27.254Z,102008.69
2023-01-01T14:19:04.725Z,102024.25
2023-01-01T14:21:36.698Z,102023.78
2023-01-01T14:24:07.629Z,102019.38
2023-01-01T14:26:40.557Z,102020.88
2023-01-01T14:29:17.767Z,102021.00
2023-01-01T14:31:50.119Z,102018.72
2023-01-01T14:34:36.539Z,102002.31
2023-01-01T14:37:21.304Z,102020.13
2023-01-01T14:40:14.200Z,102020.50
2023-01-01T14:42:46.257Z,102018.16
2023-01-01T14:45:21.349Z,102023.34
2023-01-01T14:47:53.784Z,102020.41
2023-01-01T14:50:29.725Z,102013.53
2023-01-01T14:53:14.702Z,102010.97
2023-01-01T14:55:47.985Z,102017.69
2023-01-01T14:58:29.467Z,102013.91
2023-01-01T15:01:26.993Z,102009.53
2023-01-01T15:04:00.361Z,102004.16
2023-01-01T15:06:32.125Z,101997.41
2023-01-01T15:09:05.133Z,101994.38
2023-01-01T15:11:36.124Z,101986.22
2023-01-01T15:14:07.478Z,101993.28
2023-01-01T15:16:40.787Z,101988.78
2023-01-01T15:19:20.025Z,101987.38
2023-01-01T15:21:51.207Z,101986.44
2023-01-01T15:24:28.833Z,101984.31
2023-01-01T15:27:02.100Z,101979.84
2023-01-01T15:29:42.388Z,101980.31
2023-01-01T15:32:16.587Z,101977.00
2023-01-01T15:34:53.116Z,101977.94
2023-01-01T15:37:38.045Z,101985.47
2023-01-01T15:40:18.326Z,101978.28
2023-01-01T15:43:13.943Z,101973.44
2023-01-01T15:45:54.633Z,101956.94
2023-01-01T15:48:42.390Z,101976.38
2023-01-01T15:51:31.811Z,101967.78
2023-01-01T15:54:06.513Z,101974.00
2023-01-01T15:56:42.251Z,101970.78
2023-01-01T15:59:30.199Z,101977.78
2023-01-01T16:02:12.574Z,101965.41
2023-01-01T16:04:48.733Z,101977.06
2023-01-01T16:07:25.061Z,101976.03
2023-01-01T16:09:58.029Z,101963.50
2023-01-01T16:12:31.284Z,101958.41
2023-01-01T16:15:02.203Z,101962.63
2023-01-01T16:17:33.356Z,101964.66
2023-01-01T16:20:04.811Z,101965.09
2023-01-01T16:22:36.870Z,101953.22
2023-01-01T16:25:22.773Z,101959.59
2023-01-01T16:27:54.166Z,101963.34
2023-01-01T16:30:28.370Z,101958.16
2023-01-01T16:32:59.503Z,101974.56
2023-01-01T16:35:30.485Z,101969.72
2023-01-01T16:38:01.829Z,101972.66
2023-01-01T16:40:37.674Z,101964.66
2023-01-01T16:43:19.917Z,101972.44
2023-01-01T16:45:51.179Z,101969.25
2023-01-01T16:48:22.604Z,101974.81
2023-01-01T16:50:53.985Z,101969.94
2023-01-01T16:53:25.211Z,101968.75
2023-01-01T16:55:56.468Z,101976.56
2023-01-01T17:01:19.437Z,101968.88
2023-01-01T17:03:50.873Z,101972.66
2023-01-01T17:06:22.633Z,101973.13
2023-01-01T17:08:53.335Z,101967.91
2023-01-01T17:11:26.356Z,101964.59
2023-01-01T17:13:58.025Z,101967.56
2023-01-01T17:16:38.665Z,101961.78
2023-01-01T17:19:15.474Z,101970.66
2023-01-01T17:21:48.472Z,101965.59
2023-01-01T17:24:21.570Z,101972.66
2023-01-01T17:26:56.823Z,101965.22
2023-01-01T17:29:28.172Z,101970.50
2023-01-01T17:31:59.589Z,101960.63
2023-01-01T17:34:30.782Z,101963.56
2023-01-01T17:37:01.851Z,101970.66
2023-01-01T17:39:32.930Z,101974.66
2023-01-01T17:42:03.947Z,101981.38
2023-01-01T17:44:34.995Z,101977.81
2023-01-01T17:47:05.999Z,101978.78
2023-01-01T17:49:37.112Z,101980.44
2023-01-01T17:52:08.193Z,101959.69
2023-01-01T17:54:39.282Z,101968.69
2023-01-01T17:57:10.301Z,101981.13
2023-01-01T17:59:41.186Z,101984.13
2023-01-01T18:02:16.102Z,101976.63
2023-01-01T18:04:47.258Z,101981.19
2023-01-01T18:07:18.713Z,101982.09
2023-01-01T18:09:49.645Z,101983.41
2023-01-01T18:12:20.609Z,101981.28
2023-01-01T18:14:51.800Z,101990.75
2023-01-01T18:17:22.996Z,101996.44
2023-01-01T18:19:55.274Z,101992.81
2023-01-01T18:22:26.438Z,101999.97
2023-01-01T18:24:57.785Z,102002.88
2023-01-01T18:27:28.913Z,102011.38
2023-01-01T18:30:00.330Z,102001.72
2023-01-01T18:32:34.156Z,102006.00
2023-01-01T18:35:05.151Z,102010.38
2023-01-01T18:37:38.234Z,102012.09
2023-01-01T18:40:19.485Z,102008.41
2023-01-01T18:43:04.130Z,102014.38
2023-01-01T18:45:37.014Z,102018.16
2023-01-01T18:48:15.017Z,102016.00
2023-01-01T18:50:46.145Z,102012.66
2023-01-01T18:53:24.637Z,101997.25
2023-01-01T18:56:26.117Z,102000.13
2023-01-01T18:58:58.935Z,102001.50
2023-01-01T19:01:30.405Z,102002.59
2023-01-01T19:04:05.938Z,102009.84
2023-01-01T19:06:37.535Z,102007.22
2023-01-01T19:09:24.700Z,102018.06
2023-01-01T19:11:56.737Z,102012.88
2023-01-01T19:14:30.197Z,102014.69
2023-01-01T19:17:02.811Z,102013.66
2023-01-01T19:19:37.095Z,102007.09
2023-01-01T19:22:23.351Z,102021.22
2023-01-01T19:24:54.240Z,102015.09
2023-01-01T19:27:26.922Z,102015.13
2023-01-01T19:29:58.301Z,102007.88
2023-01-01T19:32:29.356Z,102002.75
2023-01-01T19:35:01.437Z,102004.94
2023-01-01T19:37:32.759Z,102006.75
2023-01-01T19:40:03.730Z,102006.91
2023-01-01T19:42:34.885Z,102006.09
2023-01-01T19:45:07.168Z,102005.72
2023-01-01T19:47:39.762Z,102011.00
2023-01-01T19:50:11.508Z,102015.47
2023-01-01T19:52:42.782Z,102009.81
2023-01-01T19:55:13.844Z,102008.31
2023-01-01T19:57:45.777Z,102002.44
2023-01-01T20:00:17.306Z,102000.81
2023-01-01T20:02:48.419Z,102002.19
2023-01-01T20:05:19.800Z,102014.66
2023-01-01T20:07:50.848Z,102014.88
2023-01-01T20:10:22.335Z,102015.72
2023-01-01T20:12:53.368Z,101993.47
2023-01-01T20:15:24.948Z,102009.38
2023-01-01T20:17:56.346Z,102017.03
2023-01-01T20:20:27.511Z,102014.06
2023-01-01T20:22:59.117Z,102019.78
2023-01-01T20:25:30.222Z,102022.09
2023-01-01T20:28:19.563Z,102021.00
2023-01-01T20:30:50.618Z,102004.63
2023-01-01T20:33:21.591Z,102021.72
2023-01-01T20:36:10.723Z,102017.94
2023-01-01T20:38:42.164Z,102017.75
2023-01-01T20:41:26.081Z,102019.03
2023-01-01T20:44:01.197Z,102013.84
2023-01-01T20:46:32.311Z,102002.97
2023-01-01T20:49:03.283Z,102012.75
2023-01-01T20:51:34.399Z,102016.25
2023-01-01T20:54:06.009Z,102014.69
2023-01-01T20:56:37.139Z,102020.69
2023-01-01T20:59:33.563Z,102016.47
2023-01-01T21:02:01.259Z,102016.09
2023-01-01T21:04:31.623Z,102004.34
2023-01-01T21:07:02.739Z,101990.78
2023-01-01T21:09:33.765Z,101996.69
2023-01-01T21:12:05.455Z,102002.66
2023-01-01T21:14:36.671Z,102004.88
2023-01-01T21:17:28.521Z,101998.88
2023-01-01T21:19:58.979Z,102006.19
2023-01-01T21:22:30.341Z,102004.78
2023-01-01T21:25:40.585Z,102005.88
2023-01-01T21:27:54.692Z,102007.19
2023-01-01T21:30:25.158Z,102019.16
2023-01-01T21:32:56.100Z,102007.38
2023-01-01T21:35:36.960Z,102020.75
2023-01-01T21:38:28.867Z,102023.47
2023-01-01T21:41:00.954Z,102019.72
2023-01-01T21:43:36.886Z,102016.00
2023-01-01T21:46:08.047Z,102017.47
2023-01-01T21:48:47.817Z,102017.19
2023-01-01T21:51:28.734Z,102018.50
2023-01-01T21:54:05.414Z,102030.03
2023-01-01T21:56:39.501Z,102026.25
2023-01-01T21:59:30.010Z,102022.94
2023-01-01T22:02:07.705Z,102019.41
2023-01-01T22:04:40.521Z,102015.47
2023-01-01T22:07:57.405Z,102000.50
2023-01-01T22:10:39.724Z,101998.25
2023-01-01T22:13:17.220Z,102000.44
2023-01-01T22:15:49.016Z,101981.84
2023-01-01T22:18:28.668Z,101994.63
2023-01-01T22:20:59.821Z,101983.34
2023-01-01T22:23:43.541Z,101971.50
2023-01-01T22:26:22.042Z,101978.63
2023-01-01T22:28:57.405Z,101972.91
2023-01-01T22:31:32.146Z,101974.81
2023-01-01T22:34:06.509Z,101986.19
2023-01-01T22:36:39.200Z,101972.38
2023-01-01T22:39:31.936Z,101974.72
2023-01-01T22:42:03.392Z,101976.47
2023-01-01T22:44:37.224Z,101963.47
2023-01-01T22:47:15.055Z,101953.41
2023-01-01T22:49:48.441Z,101962.09
2023-01-01T22:52:20.069Z,101955.34
2023-01-01T22:54:51.140Z,101950.78
2023-01-01T22:57:22.287Z,101947.75
2023-01-01T22:59:53.384Z,101932.69
2023-01-01T23:02:24.507Z,101948.47
2023-01-01T23:04:55.773Z,101949.03
2023-01-01T23:07:27.448Z,101940.69
2023-01-01T23:09:59.781Z,101936.69
2023-01-01T23:12:31.545Z,101934.19
2023-01-01T23:15:20.643Z,101933.38
2023-01-01T23:17:51.516Z,101902.19
2023-01-01T23:20:22.820Z,101911.66
2023-01-01T23:22:56.154Z,101919.97
2023-01-01T23:25:27.499Z,101901.22
2023-01-01T23:27:58.644Z,101921.09
2023-01-01T23:30:29.281Z,101920.19
2023-01-01T23:33:00.401Z,101906.72
2023-01-01T23:35:31.658Z,101904.22
2023-01-01T23:38:03.691Z,101913.50
2023-01-01T23:40:35.743Z,101901.47
2023-01-01T23:43:07.111Z,101907.00
2023-01-01T23:45:37.784Z,101902.53
2023-01-01T23:48:10.359Z,101911.56
2023-01-01T23:50:41.815Z,101913.97
2023-01-01T23:53:13.094Z,101917.84
2023-01-01T23:55:44.431Z,101914.34
2023-01-01T23:58:15.404Z,101911.06
